Time;durP1;ratioP1;P1;durP2;ratioP2;P2;SDS_P1;SDS_P2;PMS_P1;PMS_P2;Temp;Humidity;BMP_temperature;BMP_pressure;BME280_temperature;BME280_humidity;BME280_pressure;Samples;Min_cycle;Max_cycle;Signal;HPM_P1;HPM_P2
2023/04/13 00:00:35;;;;;;;2.47;1.00;;;;;;;3.84;100.00;92868.00;4969554;28;20417;-58
2023/04/13 00:03:03;;;;;;;3.63;1.30;;;;;;;3.88;100.00;92862.56;4970208;28;20047;-58
2023/04/13 00:05:33;;;;;;;2.15;1.20;;;;;;;3.92;100.00;92861.34;4969367;28;20415;-58
2023/04/13 00:08:02;;;;;;;2.40;1.00;;;;;;;3.67;100.00;92863.47;4970147;28;20104;-58
2023/04/13 00:10:34;;;;;;;2.15;1.20;;;;;;;3.56;100.00;92864.31;4968536;28;20061;-55
2023/04/13 00:13:06;;;;;;;2.07;0.90;;;;;;;3.63;100.00;92873.59;4970003;28;20042;-57
2023/04/13 00:15:35;;;;;;;1.70;0.80;;;;;;;3.65;100.00;92872.00;4968846;28;20096;-59
2023/04/13 00:18:03;;;;;;;2.30;1.10;;;;;;;3.60;100.00;92878.63;4970057;28;20042;-59
2023/04/13 00:20:29;;;;;;;2.03;0.93;;;;;;;3.49;100.00;92877.91;4968848;28;20112;-60
2023/04/13 00:22:56;;;;;;;2.15;1.08;;;;;;;3.30;100.00;92886.53;4969877;28;20038;-57
2023/04/13 00:25:23;;;;;;;4.00;0.90;;;;;;;3.36;100.00;92898.50;4969146;28;20046;-61
2023/04/13 00:27:51;;;;;;;3.70;0.90;;;;;;;3.22;100.00;92893.16;4969525;28;20442;-59
2023/04/13 00:30:20;;;;;;;1.95;1.02;;;;;;;3.12;100.00;92895.53;4969176;28;20035;-57
2023/04/13 00:32:47;;;;;;;2.75;0.90;;;;;;;3.24;100.00;92898.94;4975065;28;20438;-58
2023/04/13 00:35:17;;;;;;;2.25;1.20;;;;;;;3.23;100.00;92894.69;4988719;28;20395;-57
2023/04/13 00:37:48;;;;;;;2.00;1.00;;;;;;;3.26;100.00;92900.13;4988347;28;20038;-59
2023/04/13 00:40:18;;;;;;;2.20;1.00;;;;;;;3.32;100.00;92900.47;4988459;28;20038;-59
2023/04/13 00:42:46;;;;;;;2.55;1.27;;;;;;;3.32;100.00;92895.03;4987783;28;20085;-60
2023/04/13 00:45:13;;;;;;;2.50;1.00;;;;;;;3.33;100.00;92899.31;4988884;28;20053;-61
2023/04/13 00:47:45;;;;;;;2.47;1.20;;;;;;;3.28;100.00;92897.00;4988001;28;20049;-61
2023/04/13 00:50:15;;;;;;;2.07;1.00;;;;;;;3.40;100.00;92907.38;4988836;28;20046;-62
2023/04/13 00:52:42;;;;;;;2.53;1.20;;;;;;;3.36;100.00;92907.44;4988043;28;20080;-58
2023/04/13 00:55:09;;;;;;;2.08;1.00;;;;;;;3.43;100.00;92893.06;4988634;28;20042;-61
2023/04/13 00:57:39;;;;;;;2.45;0.90;;;;;;;3.43;100.00;92897.72;4987923;28;20050;-58
2023/04/13 01:00:11;;;;;;;2.58;1.30;;;;;;;3.56;100.00;92888.72;4988692;28;20049;-60
2023/04/13 01:02:41;;;;;;;1.90;0.97;;;;;;;3.53;100.00;92889.50;4987932;28;20068;-58
2023/04/13 01:05:14;;;;;;;2.80;1.33;;;;;;;3.64;100.00;92883.25;4988738;28;20043;-58
2023/04/13 01:08:07;;;;;;;2.10;1.30;;;;;;;3.64;100.00;92892.16;4988369;28;20046;-59
2023/04/13 01:10:34;;;;;;;8.88;3.97;;;;;;;3.62;100.00;92891.00;4987553;28;20057;-59
2023/04/13 01:13:22;;;;;;;3.72;1.80;;;;;;;3.72;100.00;92888.25;4988536;28;20061;-57
2023/04/13 01:16:02;;;;;;;11.13;4.40;;;;;;;3.75;100.00;92879.31;4987443;28;20771;-60
2023/04/13 01:18:34;;;;;;;9.45;3.83;;;;;;;3.84;100.00;92876.13;4987635;28;20265;-59
2023/04/13 01:21:03;;;;;;;5.65;2.40;;;;;;;3.70;100.00;92868.88;4988230;28;20034;-58
2023/04/13 01:23:48;;;;;;;4.57;2.05;;;;;;;3.65;100.00;92868.53;4989694;28;20368;-58
2023/04/13 01:26:16;;;;;;;5.03;2.28;;;;;;;3.72;100.00;92873.91;4992240;28;20148;-62
2023/04/13 01:28:44;;;;;;;6.03;2.70;;;;;;;3.75;100.00;92865.75;4992138;28;20054;-61
2023/04/13 01:31:12;;;;;;;6.15;2.70;;;;;;;3.78;100.00;92866.88;4991904;28;20042;-62
2023/04/13 01:33:40;;;;;;;3.88;2.08;;;;;;;3.86;100.00;92867.59;4991440;28;20050;-58
2023/04/13 01:36:10;;;;;;;3.60;1.40;;;;;;;3.89;100.00;92870.31;4992264;28;20042;-61
2023/04/13 01:38:36;;;;;;;2.30;1.30;;;;;;;3.87;100.00;92869.94;4990098;28;20056;-61
2023/04/13 01:41:03;;;;;;;3.13;0.90;;;;;;;3.70;100.00;92868.09;4991960;28;20046;-60
2023/04/13 01:43:31;;;;;;;2.60;1.08;;;;;;;3.43;100.00;92865.94;4991309;28;20081;-57
2023/04/13 01:46:03;;;;;;;2.70;1.30;;;;;;;3.28;100.00;92865.25;4992113;28;20049;-59
2023/04/13 01:48:50;;;;;;;2.67;1.27;;;;;;;3.24;100.00;92879.97;4990081;28;20045;-59
2023/04/13 01:51:20;;;;;;;2.30;1.00;;;;;;;3.16;100.00;92873.81;4991685;28;20086;-64
2023/04/13 01:53:55;;;;;;;3.23;1.50;;;;;;;3.19;100.00;92875.72;4990931;28;20773;-58
2023/04/13 01:56:23;;;;;;;3.40;1.25;;;;;;;3.13;100.00;92877.31;4991086;28;20046;-58
2023/04/13 01:58:55;;;;;;;3.22;1.50;;;;;;;3.13;100.00;92869.94;4992144;28;20387;-60
2023/04/13 02:01:21;;;;;;;3.45;1.20;;;;;;;3.08;100.00;92881.22;4991527;28;20398;-58
2023/04/13 02:03:48;;;;;;;3.42;1.50;;;;;;;3.12;100.00;92871.13;4990856;28;20752;-61
2023/04/13 02:06:15;;;;;;;4.20;1.20;;;;;;;3.20;100.00;92863.72;4991698;28;20037;-59
2023/04/13 02:08:41;;;;;;;3.78;1.27;;;;;;;3.26;100.00;92866.78;4990834;28;20092;-59
2023/04/13 02:11:11;;;;;;;5.00;2.17;;;;;;;3.30;100.00;92872.97;4991479;28;20045;-56
2023/04/13 02:13:38;;;;;;;4.95;1.95;;;;;;;3.25;100.00;92885.00;4990819;28;20042;-59
2023/04/13 02:16:08;;;;;;;7.28;2.35;;;;;;;3.33;100.00;92877.59;4991483;28;20052;-59
2023/04/13 02:18:35;;;;;;;3.40;1.67;;;;;;;3.32;100.00;92881.47;4990744;28;20053;-59
2023/04/13 02:21:10;;;;;;;3.00;1.30;;;;;;;3.45;100.00;92882.59;4991335;28;20477;-57
2023/04/13 02:23:39;;;;;;;4.05;1.60;;;;;;;3.48;100.00;92881.81;4990790;28;20146;-59
2023/04/13 02:26:15;;;;;;;3.15;1.58;;;;;;;3.59;100.00;92890.63;4991294;28;20050;-58
2023/04/13 02:28:42;;;;;;;2.90;1.33;;;;;;;3.64;100.00;92891.38;4990520;28;20571;-59
2023/04/13 02:31:09;;;;;;;4.50;1.37;;;;;;;3.69;100.00;92894.47;4991242;28;20050;-60
2023/04/13 02:33:36;;;;;;;3.58;1.60;;;;;;;3.68;100.00;92894.84;4989754;28;20557;-59
2023/04/13 02:36:03;;;;;;;4.07;1.52;;;;;;;3.77;100.00;92890.53;4990993;28;20050;-59
2023/04/13 02:38:30;;;;;;;3.35;1.17;;;;;;;3.78;100.00;92894.81;4990075;28;20048;-59
2023/04/13 02:40:59;;;;;;;2.83;1.60;;;;;;;3.75;100.00;92892.88;4987365;28;20340;-60
2023/04/13 02:43:26;;;;;;;3.03;1.90;;;;;;;3.76;100.00;92885.50;4970433;28;20120;-59
2023/04/13 02:45:52;;;;;;;2.67;1.50;;;;;;;3.79;100.00;92885.47;4971436;28;20476;-60
2023/04/13 02:48:20;;;;;;;4.65;2.00;;;;;;;3.84;100.00;92891.66;4971511;28;20039;-60
2023/04/13 02:50:47;;;;;;;3.03;1.67;;;;;;;3.74;100.00;92899.50;4971029;28;20050;-59
2023/04/13 02:53:15;;;;;;;4.15;1.67;;;;;;;3.84;100.00;92899.81;4971359;28;20445;-58
2023/04/13 02:55:42;;;;;;;3.80;2.00;;;;;;;3.72;100.00;92899.13;4970428;28;20072;-60
2023/04/13 02:58:12;;;;;;;3.00;1.60;;;;;;;3.53;100.00;92905.78;4971418;28;20076;-56
2023/04/13 03:00:39;;;;;;;5.00;2.10;;;;;;;3.51;100.00;92894.56;4970428;28;20078;-57
2023/04/13 03:03:05;;;;;;;3.22;1.35;;;;;;;3.31;100.00;92896.22;4971121;28;20049;-56
2023/04/13 03:05:32;;;;;;;3.90;1.20;;;;;;;3.48;100.00;92883.72;4970261;28;20039;-59
2023/04/13 03:07:59;;;;;;;2.87;1.53;;;;;;;3.62;100.00;92886.34;4971012;28;20400;-58
2023/04/13 03:10:27;;;;;;;4.03;1.38;;;;;;;3.78;100.00;92900.25;4969860;28;20437;-62
2023/04/13 03:12:53;;;;;;;4.38;2.20;;;;;;;3.68;100.00;92890.22;4971228;28;20146;-60
2023/04/13 03:15:20;;;;;;;4.50;1.83;;;;;;;3.69;100.00;92891.75;4971013;28;20043;-58
2023/04/13 03:17:47;;;;;;;3.78;1.75;;;;;;;3.65;100.00;92895.66;4969714;28;20241;-58
2023/04/13 03:20:15;;;;;;;4.03;1.73;;;;;;;3.72;100.00;92896.41;4970487;28;20051;-56
2023/04/13 03:22:43;;;;;;;3.80;1.83;;;;;;;3.73;100.00;92895.22;4969815;28;20051;-58
2023/04/13 03:25:11;;;;;;;4.25;2.15;;;;;;;3.77;100.00;92903.34;4970778;28;20201;-59
2023/04/13 03:27:38;;;;;;;3.33;1.80;;;;;;;3.79;100.00;92904.47;4969969;28;20042;-60
2023/04/13 03:30:06;;;;;;;4.07;1.77;;;;;;;3.88;100.00;92909.47;4970614;28;20059;-59
2023/04/13 03:32:33;;;;;;;3.17;1.70;;;;;;;3.85;100.00;92904.06;4969696;28;20053;-59
2023/04/13 03:35:00;;;;;;;3.22;1.58;;;;;;;3.74;100.00;92901.41;4970910;28;20066;-59
2023/04/13 03:37:28;;;;;;;3.67;2.00;;;;;;;3.67;100.00;92901.47;4968421;28;20043;-58
2023/04/13 03:39:57;;;;;;;4.60;1.77;;;;;;;3.70;100.00;92903.38;4970375;28;20097;-59
2023/04/13 03:42:23;;;;;;;3.53;1.92;;;;;;;3.73;100.00;92906.06;4984457;28;20052;-63
2023/04/13 03:44:50;;;;;;;4.90;1.90;;;;;;;3.71;100.00;92916.53;4989368;28;20034;-58
2023/04/13 03:47:17;;;;;;;4.78;1.80;;;;;;;3.73;100.00;92925.06;4989255;28;20454;-59
2023/04/13 03:49:44;;;;;;;47.50;25.08;;;;;;;3.73;100.00;92921.59;4989078;28;20073;-60
2023/04/13 03:52:10;;;;;;;7.47;3.67;;;;;;;3.52;100.00;92922.44;4989682;28;20045;-60
2023/04/13 03:54:38;;;;;;;7.93;3.10;;;;;;;3.57;100.00;92927.47;4987643;28;20056;-59
2023/04/13 03:57:06;;;;;;;6.47;2.70;;;;;;;3.18;100.00;92923.00;4989707;28;20499;-59
2023/04/13 03:59:33;;;;;;;5.07;2.08;;;;;;;3.44;100.00;92919.03;4988571;28;20052;-59
2023/04/13 04:02:01;;;;;;;4.57;2.25;;;;;;;3.62;100.00;92915.44;4989332;28;20046;-57
2023/04/13 04:04:28;;;;;;;6.95;2.65;;;;;;;3.46;100.00;92916.69;4988535;28;20042;-58
2023/04/13 04:06:56;;;;;;;6.50;2.70;;;;;;;3.55;100.00;92908.13;4989524;28;20084;-59
2023/04/13 04:09:24;;;;;;;4.27;1.97;;;;;;;3.69;100.00;92924.31;4987523;28;20095;-62
2023/04/13 04:11:51;;;;;;;10.57;1.83;;;;;;;3.61;100.00;92911.97;4988741;28;20053;-62
2023/04/13 04:14:18;;;;;;;8.52;3.00;;;;;;;3.40;100.00;92916.31;4989867;28;20057;-60
2023/04/13 04:16:45;;;;;;;3.88;1.88;;;;;;;3.29;100.00;92912.09;4988787;28;20764;-60
2023/04/13 04:19:11;;;;;;;9.00;4.53;;;;;;;3.44;100.00;92913.59;4988060;28;20041;-58
2023/04/13 04:21:45;;;;;;;28.13;12.03;;;;;;;3.44;100.00;92905.47;4988244;28;20042;-57
2023/04/13 04:24:19;;;;;;;18.80;8.02;;;;;;;3.52;100.00;92909.69;4989075;28;20042;-56
2023/04/13 04:26:53;;;;;;;12.82;4.82;;;;;;;3.57;100.00;92905.78;4988180;28;20419;-59
2023/04/13 04:29:21;;;;;;;9.82;4.63;;;;;;;3.63;100.00;92895.28;4989216;28;20400;-62
2023/04/13 04:31:52;;;;;;;14.73;7.00;;;;;;;3.65;100.00;92901.09;4987742;28;20483;-58
2023/04/13 04:34:19;;;;;;;14.67;8.27;;;;;;;3.66;100.00;92889.06;4988956;28;20100;-58
2023/04/13 04:36:50;;;;;;;10.85;4.72;;;;;;;3.64;100.00;92881.31;4988126;28;20046;-62
2023/04/13 04:39:21;;;;;;;11.25;5.82;;;;;;;3.57;100.00;92884.84;4988837;28;20511;-59
2023/04/13 04:41:52;;;;;;;4.82;2.47;;;;;;;3.65;100.00;92876.66;4977410;28;20034;-59
2023/04/13 04:44:23;;;;;;;10.02;4.85;;;;;;;3.60;100.00;92875.91;4969385;28;20086;-58
2023/04/13 04:46:51;;;;;;;7.33;2.27;;;;;;;3.64;100.00;92877.81;4968254;28;20051;-60
2023/04/13 04:49:20;;;;;;;9.45;4.30;;;;;;;3.37;100.00;92881.06;4969515;28;20054;-59
2023/04/13 04:51:51;;;;;;;12.98;6.57;;;;;;;3.37;100.00;92883.78;4968581;28;20211;-60
2023/04/13 04:54:19;;;;;;;8.13;4.03;;;;;;;3.39;100.00;92886.88;4969409;28;20480;-58
2023/04/13 04:56:49;;;;;;;10.57;5.70;;;;;;;3.49;100.00;92893.41;4967043;28;20042;-60
2023/04/13 04:59:19;;;;;;;6.73;2.90;;;;;;;3.35;100.00;92896.97;4968882;28;20035;-57
2023/04/13 05:01:48;;;;;;;13.10;9.57;;;;;;;3.20;100.00;92891.59;4981478;28;20107;-59
2023/04/13 05:04:15;;;;;;;10.02;6.03;;;;;;;3.10;100.00;92889.72;4989125;28;20447;-61
2023/04/13 05:06:43;;;;;;;8.63;4.68;;;;;;;2.93;100.00;92888.59;4986633;28;20076;-59
2023/04/13 05:09:10;;;;;;;10.02;4.72;;;;;;;2.88;100.00;92899.06;4988490;28;20034;-59
2023/04/13 05:11:37;;;;;;;5.70;1.80;;;;;;;2.90;100.00;92911.06;4987258;28;20050;-58
2023/04/13 05:14:04;;;;;;;8.18;3.47;;;;;;;2.89;100.00;92908.75;4988267;28;20081;-59
2023/04/13 05:16:32;;;;;;;7.90;3.90;;;;;;;2.83;100.00;92905.66;4987255;28;20038;-62
2023/04/13 05:19:00;;;;;;;7.15;2.47;;;;;;;2.96;100.00;92911.44;4988283;28;20116;-60
2023/04/13 05:21:27;;;;;;;6.47;3.00;;;;;;;2.99;100.00;92910.66;4987275;28;20043;-60
2023/04/13 05:23:55;;;;;;;8.97;3.20;;;;;;;3.04;100.00;92917.59;4986925;28;20050;-59
2023/04/13 05:26:23;;;;;;;6.38;1.70;;;;;;;3.03;100.00;92914.13;4988386;28;20047;-61
2023/04/13 05:28:50;;;;;;;5.72;2.45;;;;;;;3.18;100.00;92917.56;4987235;28;20706;-62
2023/04/13 05:31:17;;;;;;;5.53;2.13;;;;;;;3.10;100.00;92905.19;4988482;28;20047;-59
2023/04/13 05:33:45;;;;;;;5.93;1.70;;;;;;;3.28;100.00;92908.63;4987660;28;20042;-59
2023/04/13 05:36:12;;;;;;;5.17;1.80;;;;;;;3.44;100.00;92910.88;4988216;28;20056;-61
2023/04/13 05:38:39;;;;;;;6.88;1.85;;;;;;;3.42;100.00;92915.13;4986120;28;20108;-59
2023/04/13 05:41:06;;;;;;;6.60;2.50;;;;;;;3.22;100.00;92922.97;4983586;28;20058;-60
2023/04/13 05:43:35;;;;;;;7.05;3.30;;;;;;;3.18;100.00;92921.06;4968239;28;20043;-59
2023/04/13 05:46:03;;;;;;;13.95;7.22;;;;;;;3.05;100.00;92913.75;4968826;28;20623;-60
2023/04/13 05:48:30;;;;;;;6.83;3.03;;;;;;;2.99;100.00;92929.63;4967566;28;20046;-64
2023/04/13 05:51:00;;;;;;;6.43;3.08;;;;;;;3.02;100.00;92928.84;4968571;28;20058;-60
2023/04/13 05:53:26;;;;;;;7.47;2.92;;;;;;;2.97;100.00;92927.31;4968186;28;20069;-57
2023/04/13 05:55:53;;;;;;;7.95;2.28;;;;;;;2.91;100.00;92922.69;4968307;28;20116;-60
2023/04/13 05:58:21;;;;;;;4.60;1.55;;;;;;;2.96;100.00;92927.72;4968574;28;20046;-58
2023/04/13 06:00:47;;;;;;;6.30;1.73;;;;;;;3.02;100.00;92922.63;4967313;28;20693;-59
2023/04/13 06:03:14;;;;;;;6.70;1.65;;;;;;;3.00;100.00;92928.47;4968310;28;20133;-58
2023/04/13 06:05:42;;;;;;;4.40;1.73;;;;;;;2.93;100.00;92929.25;4967837;28;20089;-62
2023/04/13 06:08:09;;;;;;;9.35;2.65;;;;;;;2.97;100.00;92930.00;4968522;28;20669;-61
2023/04/13 06:10:36;;;;;;;6.85;1.90;;;;;;;2.92;100.00;92940.50;4969756;28;20054;-63
2023/04/13 06:13:03;;;;;;;7.73;1.90;;;;;;;2.92;100.00;92940.50;4972097;28;20047;-60
2023/04/13 06:15:30;;;;;;;5.70;2.42;;;;;;;2.86;100.00;92950.16;4971532;28;20049;-59
2023/04/13 06:17:57;;;;;;;6.25;1.98;;;;;;;2.90;100.00;92951.72;4971995;28;20046;-59
2023/04/13 06:20:23;;;;;;;7.82;1.83;;;;;;;2.90;100.00;92950.97;4971455;28;20107;-64
2023/04/13 06:22:50;;;;;;;7.70;1.42;;;;;;;2.95;100.00;92951.31;4971456;28;20516;-61
2023/04/13 06:25:18;;;;;;;7.07;2.00;;;;;;;2.86;100.00;92953.66;4972042;28;20073;-57
2023/04/13 06:27:46;;;;;;;6.40;2.00;;;;;;;2.90;100.00;92959.84;4969895;28;20100;-60
2023/04/13 06:30:12;;;;;;;5.88;1.90;;;;;;;3.07;100.00;92952.84;4971941;28;20042;-55
2023/04/13 06:32:39;;;;;;;6.40;1.90;;;;;;;3.18;100.00;92960.97;4970974;28;20051;-59
2023/04/13 06:35:06;;;;;;;6.30;1.75;;;;;;;3.70;100.00;92958.44;4971578;28;20191;-54
2023/04/13 06:37:34;;;;;;;4.90;1.47;;;;;;;3.75;100.00;92957.22;4970776;28;20073;-64
2023/04/13 06:40:11;;;;;;;7.70;1.80;;;;;;;4.97;100.00;92945.47;4982315;28;20683;-61
2023/04/13 06:42:40;;;;;;;5.78;2.03;;;;;;;5.33;100.00;92950.53;4973419;28;20615;-59
2023/04/13 06:45:10;;;;;;;7.07;2.30;;;;;;;4.98;100.00;92955.94;4971576;28;20050;-59
2023/04/13 06:47:39;;;;;;;6.47;1.92;;;;;;;4.90;100.00;92943.59;4970512;28;20055;-58
2023/04/13 06:50:08;;;;;;;5.57;1.63;;;;;;;4.21;100.00;92950.75;4971347;28;20129;-59
2023/04/13 06:52:40;;;;;;;8.48;1.92;;;;;;;3.86;100.00;92949.78;4970295;28;20518;-59
2023/04/13 06:55:07;;;;;;;7.70;2.20;;;;;;;4.31;100.00;92957.28;4970336;28;20093;-53
2023/04/13 06:57:34;;;;;;;6.55;2.08;;;;;;;4.71;100.00;92947.66;4971085;28;20053;-53
2023/04/13 07:00:00;;;;;;;7.03;1.90;;;;;;;5.16;100.00;92942.16;4971198;28;20043;-55
2023/04/13 07:02:27;;;;;;;8.07;1.97;;;;;;;6.70;100.00;92933.13;4969708;28;20069;-57
2023/04/13 07:04:54;;;;;;;7.32;1.83;;;;;;;7.83;100.00;92934.19;5001784;28;20462;-55
2023/04/13 07:07:21;;;;;;;6.55;1.98;;;;;;;10.16;86.81;92933.06;4971354;28;20038;-56
2023/04/13 07:09:48;;;;;;;6.45;1.77;;;;;;;8.61;93.33;92933.63;4969830;28;20827;-53
2023/04/13 07:12:15;;;;;;;7.47;1.65;;;;;;;7.12;100.00;92945.28;4971019;28;20054;-56
2023/04/13 07:14:42;;;;;;;6.97;1.60;;;;;;;6.54;100.00;92944.66;4968731;28;20055;-59
2023/04/13 07:17:09;;;;;;;6.10;1.60;;;;;;;5.84;100.00;92945.28;4970898;28;20109;-54
2023/04/13 07:19:45;;;;;;;6.20;1.70;;;;;;;5.86;100.00;92949.13;4970093;28;20112;-55
2023/04/13 07:22:12;;;;;;;6.20;1.85;;;;;;;5.70;100.00;92947.00;4970854;28;20138;-55
2023/04/13 07:24:40;;;;;;;7.03;1.80;;;;;;;6.08;100.00;92948.88;4970197;28;20113;-55
2023/04/13 07:27:06;;;;;;;11.70;1.63;;;;;;;6.57;100.00;92952.03;4970976;28;20034;-54
2023/04/13 07:29:33;;;;;;;5.38;1.48;;;;;;;6.28;100.00;92949.75;4970201;28;20047;-53
2023/04/13 07:32:03;;;;;;;6.45;1.80;;;;;;;6.27;100.00;92947.44;4970466;28;20127;-58
2023/04/13 07:34:30;;;;;;;5.82;1.60;;;;;;;6.84;100.00;92940.31;4970303;28;20495;-56
2023/04/13 07:36:57;;;;;;;6.95;1.83;;;;;;;6.73;100.00;92945.94;4970436;28;20463;-55
2023/04/13 07:39:23;;;;;;;5.47;1.53;;;;;;;7.15;100.00;92941.72;4970066;28;20374;-59
2023/04/13 07:41:50;;;;;;;8.35;2.00;;;;;;;7.60;97.74;92935.78;5003785;28;20046;-58
2023/04/13 07:44:17;;;;;;;6.40;1.95;;;;;;;7.71;98.93;92937.56;4988973;28;20056;-54
2023/04/13 07:46:44;;;;;;;7.90;1.70;;;;;;;8.58;89.53;92929.03;4987796;28;20038;-57
2023/04/13 07:49:10;;;;;;;7.18;1.70;;;;;;;8.39;87.36;92925.13;4990177;28;20042;-57
2023/04/13 07:51:37;;;;;;;5.67;1.50;;;;;;;8.34;83.78;92925.66;4989174;28;20057;-57
2023/04/13 07:54:04;;;;;;;5.30;1.55;;;;;;;7.30;89.58;92935.97;4988345;28;20449;-55
2023/04/13 07:56:30;;;;;;;5.50;1.75;;;;;;;7.69;87.76;92934.47;4971499;28;20487;-54
2023/04/13 07:58:57;;;;;;;5.10;1.30;;;;;;;7.67;87.24;92929.44;4988036;28;20042;-56
2023/04/13 08:01:25;;;;;;;7.88;1.70;;;;;;;7.64;89.31;92946.63;4989076;28;20042;-58
2023/04/13 08:03:52;;;;;;;5.80;1.40;;;;;;;7.40;91.62;92944.00;4989347;28;20062;-55
2023/04/13 08:06:22;;;;;;;7.25;1.60;;;;;;;7.64;92.17;92948.59;4989620;28;20111;-57
2023/04/13 08:08:48;;;;;;;6.70;1.70;;;;;;;7.06;93.52;92957.06;4988483;28;20336;-52
2023/04/13 08:11:15;;;;;;;6.68;1.75;;;;;;;6.90;92.54;92947.63;4989026;28;20426;-56
2023/04/13 08:13:42;;;;;;;6.25;1.58;;;;;;;6.75;95.04;92941.59;4987147;28;20042;-56
2023/04/13 08:16:09;;;;;;;6.90;1.90;;;;;;;6.97;93.65;92938.53;4989308;28;20049;-53
2023/04/13 08:18:37;;;;;;;7.22;1.67;;;;;;;7.08;92.12;92944.56;4988452;28;20070;-54
2023/04/13 08:21:11;;;;;;;7.57;2.20;;;;;;;6.50;93.72;92950.19;4987406;28;20434;-52
2023/04/13 08:23:41;;;;;;;10.30;1.90;;;;;;;6.37;96.17;92950.00;4988771;28;20043;-56
2023/04/13 08:26:19;;;;;;;6.13;1.92;;;;;;;6.08;98.34;92962.50;4989132;28;20477;-57
2023/04/13 08:28:47;;;;;;;6.47;1.80;;;;;;;6.06;100.00;92962.91;4988201;28;20046;-57
2023/04/13 08:31:14;;;;;;;5.13;1.40;;;;;;;5.94;97.37;92958.75;4988396;28;20054;-56
2023/04/13 08:33:42;;;;;;;7.15;2.45;;;;;;;6.04;98.69;92959.81;4987984;28;20050;-55
2023/04/13 08:36:09;;;;;;;5.32;1.50;;;;;;;6.06;99.75;92956.69;4989005;28;20537;-55
2023/04/13 08:38:36;;;;;;;6.05;2.30;;;;;;;5.77;98.38;92963.22;4988336;28;20038;-56
2023/04/13 08:41:02;;;;;;;8.43;2.10;;;;;;;6.08;98.78;92962.50;4984488;28;20038;-54
2023/04/13 08:43:32;;;;;;;6.93;2.10;;;;;;;5.76;100.00;92969.84;4968800;28;20038;-53
2023/04/13 08:45:58;;;;;;;5.20;1.52;;;;;;;5.44;99.46;92972.97;4969109;28;20391;-54
2023/04/13 08:48:26;;;;;;;5.93;1.50;;;;;;;5.72;100.00;92971.84;4969012;28;20050;-58
2023/04/13 08:50:58;;;;;;;7.80;2.60;;;;;;;6.00;100.00;92973.47;4969273;28;20073;-56
2023/04/13 08:53:25;;;;;;;6.53;2.73;;;;;;;5.83;100.00;92969.00;4968963;28;20051;-54
2023/04/13 08:55:54;;;;;;;9.73;2.50;;;;;;;5.56;100.00;92972.44;4969002;28;20500;-54
2023/04/13 08:58:23;;;;;;;10.90;4.25;;;;;;;5.50;100.00;92965.88;4969425;28;20046;-54
2023/04/13 09:00:51;;;;;;;9.25;3.20;;;;;;;5.59;100.00;92965.38;4968094;28;21450;-52
2023/04/13 09:03:23;;;;;;;10.00;4.10;;;;;;;5.82;100.00;92966.69;4969146;28;20361;-54
2023/04/13 09:06:00;;;;;;;9.10;2.40;;;;;;;5.58;100.00;92961.91;4966776;28;20656;-54
2023/04/13 09:08:33;;;;;;;6.03;1.50;;;;;;;5.42;100.00;92964.44;4968835;28;20042;-54
2023/04/13 09:11:01;;;;;;;7.88;2.10;;;;;;;5.33;100.00;92973.09;4967170;28;20121;-55
2023/04/13 09:13:28;;;;;;;6.88;1.90;;;;;;;5.24;100.00;92969.31;4968640;28;20050;-56
2023/04/13 09:15:56;;;;;;;9.63;1.70;;;;;;;5.27;100.00;92974.72;4968918;28;20258;-57
2023/04/13 09:18:22;;;;;;;10.37;2.17;;;;;;;5.29;100.00;92971.56;4968789;28;20102;-53
2023/04/13 09:20:56;;;;;;;6.13;1.85;;;;;;;5.29;100.00;92977.00;4968685;28;20479;-53
2023/04/13 09:23:23;;;;;;;6.05;1.85;;;;;;;5.10;100.00;92972.94;4968427;28;20108;-55
2023/04/13 09:26:11;;;;;;;12.95;2.08;;;;;;;5.32;100.00;92984.38;4968745;28;20038;-58
2023/04/13 09:28:45;;;;;;;7.22;2.15;;;;;;;5.59;100.00;92976.28;4968536;28;20466;-56
2023/04/13 09:31:12;;;;;;;7.20;2.17;;;;;;;5.71;100.00;92969.53;4969181;28;20043;-55
2023/04/13 09:33:47;;;;;;;6.85;1.70;;;;;;;5.51;100.00;92970.13;4967323;28;20043;-57
2023/04/13 09:36:19;;;;;;;9.38;2.00;;;;;;;5.21;100.00;92976.28;4968741;28;20520;-56
2023/04/13 09:38:51;;;;;;;7.13;1.70;;;;;;;5.27;100.00;92980.16;4967104;28;20100;-53
2023/04/13 09:41:37;;;;;;;6.35;1.73;;;;;;;5.46;100.00;92978.00;4974428;28;20038;-54
2023/04/13 09:44:26;;;;;;;11.20;1.60;;;;;;;5.37;100.00;92973.81;4988313;28;20679;-57
2023/04/13 09:47:01;;;;;;;8.45;1.92;;;;;;;5.88;100.00;92971.28;4990669;28;20588;-57
2023/04/13 09:49:38;;;;;;;13.90;4.00;;;;;;;6.04;100.00;92967.19;4991515;28;20061;-57
2023/04/13 09:52:09;;;;;;;8.95;1.90;;;;;;;5.93;100.00;92967.31;4991889;28;20139;-57
2023/04/13 09:54:35;;;;;;;6.55;2.60;;;;;;;6.03;100.00;92963.72;4991724;28;20518;-57
2023/04/13 09:57:03;;;;;;;8.37;2.20;;;;;;;5.86;100.00;92954.56;4991873;28;20046;-54
2023/04/13 09:59:31;;;;;;;6.90;1.70;;;;;;;6.14;100.00;92956.16;4991244;28;20050;-56
2023/04/13 10:01:59;;;;;;;8.73;2.88;;;;;;;6.26;100.00;92954.03;4991430;28;20045;-54
2023/04/13 10:04:26;;;;;;;6.25;1.77;;;;;;;6.20;100.00;92956.47;4991605;28;20491;-56
2023/04/13 10:06:53;;;;;;;9.02;2.97;;;;;;;6.15;100.00;92965.88;4991207;28;20464;-52
2023/04/13 10:09:20;;;;;;;17.13;7.43;;;;;;;6.14;100.00;92966.31;4991361;28;20104;-56
2023/04/13 10:11:50;;;;;;;10.07;2.40;;;;;;;6.05;100.00;92955.13;4989617;28;20430;-55
2023/04/13 10:14:22;;;;;;;10.20;3.70;;;;;;;6.39;100.00;92955.03;4991523;28;20061;-56
2023/04/13 10:16:52;;;;;;;10.70;2.20;;;;;;;6.25;100.00;92953.28;4990648;28;20057;-57
2023/04/13 10:19:23;;;;;;;5.95;1.73;;;;;;;5.90;100.00;92949.84;4991534;28;20034;-57
2023/04/13 10:21:51;;;;;;;6.93;2.13;;;;;;;5.70;100.00;92943.50;4990397;28;21846;-54
2023/04/13 10:24:19;;;;;;;7.32;2.17;;;;;;;6.06;100.00;92952.00;4991326;28;20046;-56
2023/04/13 10:26:46;;;;;;;8.75;3.15;;;;;;;6.17;100.00;92941.72;4990939;28;20413;-53
2023/04/13 10:29:15;;;;;;;11.82;3.33;;;;;;;5.92;100.00;92947.50;4990944;28;20096;-57
2023/04/13 10:31:47;;;;;;;8.80;2.58;;;;;;;5.72;100.00;92941.16;4990920;28;20398;-55
2023/04/13 10:34:37;;;;;;;7.43;2.40;;;;;;;5.87;100.00;92947.94;4991173;28;20045;-59
2023/04/13 10:37:05;;;;;;;9.93;2.47;;;;;;;6.10;100.00;92950.00;4989938;28;20861;-54
2023/04/13 10:39:34;;;;;;;9.77;3.38;;;;;;;6.41;99.49;92941.75;4990527;28;20045;-53
2023/04/13 10:42:02;;;;;;;11.18;2.25;;;;;;;6.38;96.74;92954.28;4977632;28;20049;-52
2023/04/13 10:44:42;;;;;;;8.18;2.10;;;;;;;6.68;95.67;92960.81;4971132;28;20069;-53
2023/04/13 10:47:10;;;;;;;7.00;1.50;;;;;;;6.92;89.48;92947.97;4971207;28;20051;-55
2023/04/13 10:49:37;;;;;;;5.10;1.60;;;;;;;7.25;86.08;92945.44;4970764;28;20120;-55
2023/04/13 10:52:04;;;;;;;7.22;1.70;;;;;;;8.19;79.95;92933.41;4971431;28;20050;-56
2023/04/13 10:54:33;;;;;;;6.97;2.15;;;;;;;8.48;78.52;92932.81;4970295;28;20043;-53
2023/04/13 10:57:03;;;;;;;8.20;1.75;;;;;;;8.79;77.43;92925.00;4971125;28;20077;-54
2023/04/13 10:59:43;;;;;;;6.97;1.50;;;;;;;9.31;73.71;92932.28;4970844;28;20487;-56
2023/04/13 11:02:15;;;;;;;6.10;1.80;;;;;;;8.90;74.46;92932.97;4970949;28;20053;-55
2023/04/13 11:04:45;;;;;;;5.50;1.45;;;;;;;8.73;78.04;92940.41;4970439;28;20510;-53
2023/04/13 11:07:15;;;;;;;8.35;1.52;;;;;;;8.31;86.83;92931.97;4971136;28;20049;-53
2023/04/13 11:09:44;;;;;;;8.85;1.95;;;;;;;8.29;88.95;92937.88;4970136;28;20105;-55
2023/04/13 11:12:11;;;;;;;6.60;2.00;;;;;;;8.42;88.42;92935.25;4983348;28;20046;-56
2023/04/13 11:14:38;;;;;;;6.65;1.75;;;;;;;8.33;84.43;92937.78;4990262;28;20046;-53
2023/04/13 11:17:12;;;;;;;9.10;1.90;;;;;;;8.75;81.65;92935.28;4989643;28;20076;-52
2023/04/13 11:19:50;;;;;;;6.50;1.55;;;;;;;9.03;83.88;92914.63;4989822;28;20042;-56
2023/04/13 11:22:18;;;;;;;8.02;2.20;;;;;;;10.19;77.30;92913.03;4990210;28;20491;-57
2023/04/13 11:24:46;;;;;;;7.83;2.30;;;;;;;7.59;93.72;92917.09;4989607;28;20484;-57
2023/04/13 11:27:16;;;;;;;5.85;2.00;;;;;;;7.38;100.00;92910.88;4989929;28;20065;-55
2023/04/13 11:29:43;;;;;;;6.28;2.30;;;;;;;6.71;100.00;92910.91;4989779;28;20058;-58
2023/04/13 11:32:17;;;;;;;6.97;2.17;;;;;;;9.11;96.26;92904.28;4990331;28;20073;-57
2023/04/13 11:34:45;;;;;;;8.82;3.00;;;;;;;9.08;86.74;92900.44;4989744;28;20042;-59
2023/04/13 11:37:12;;;;;;;12.47;5.80;;;;;;;8.95;81.44;92902.34;4990091;28;20056;-54
2023/04/13 11:39:41;;;;;;;7.07;2.00;;;;;;;9.17;82.81;92900.59;4989283;28;20046;-57
2023/04/13 11:42:08;;;;;;;7.25;1.80;;;;;;;9.21;79.03;92900.50;4976774;28;20055;-56